sensor_id;sensor_type;location;lat;lon;timestamp;P1;durP1;ratioP1;P2;durP2;ratioP2
49460;SDS011;35355;49.198;-0.368;2023-07-31T00:01:52;4.60;;;1.73;;
49460;SDS011;35355;49.198;-0.368;2023-07-31T00:04:17;10.13;;;2.10;;
49460;SDS011;35355;49.198;-0.368;2023-07-31T00:06:43;5.60;;;1.90;;
49460;SDS011;35355;49.198;-0.368;2023-07-31T00:09:08;9.80;;;1.55;;
49460;SDS011;35355;49.198;-0.368;2023-07-31T00:11:34;7.90;;;1.83;;
49460;SDS011;35355;49.198;-0.368;2023-07-31T00:13:59;8.95;;;2.78;;
49460;SDS011;35355;49.198;-0.368;2023-07-31T00:16:25;8.45;;;2.10;;
49460;SDS011;35355;49.198;-0.368;2023-07-31T00:18:50;8.98;;;2.15;;
49460;SDS011;35355;49.198;-0.368;2023-07-31T00:21:15;14.07;;;2.50;;
49460;SDS011;35355;49.198;-0.368;2023-07-31T00:23:41;12.48;;;2.55;;
49460;SDS011;35355;49.198;-0.368;2023-07-31T00:26:06;10.70;;;2.10;;
49460;SDS011;35355;49.198;-0.368;2023-07-31T00:28:31;10.30;;;2.67;;
49460;SDS011;35355;49.198;-0.368;2023-07-31T00:30:57;6.85;;;2.30;;
49460;SDS011;35355;49.198;-0.368;2023-07-31T00:33:22;10.93;;;2.70;;
49460;SDS011;35355;49.198;-0.368;2023-07-31T00:35:48;12.23;;;3.40;;
49460;SDS011;35355;49.198;-0.368;2023-07-31T00:38:13;8.40;;;2.35;;
49460;SDS011;35355;49.198;-0.368;2023-07-31T00:40:39;6.80;;;1.95;;
49460;SDS011;35355;49.198;-0.368;2023-07-31T00:43:04;7.00;;;2.45;;
49460;SDS011;35355;49.198;-0.368;2023-07-31T00:45:30;11.50;;;3.20;;
49460;SDS011;35355;49.198;-0.368;2023-07-31T00:47:56;7.75;;;2.28;;
49460;SDS011;35355;49.198;-0.368;2023-07-31T00:50:22;8.77;;;2.88;;
49460;SDS011;35355;49.198;-0.368;2023-07-31T00:52:52;9.13;;;3.15;;
49460;SDS011;35355;49.198;-0.368;2023-07-31T00:55:18;10.25;;;2.72;;
49460;SDS011;35355;49.198;-0.368;2023-07-31T00:57:43;6.20;;;2.78;;
49460;SDS011;35355;49.198;-0.368;2023-07-31T01:00:10;16.80;;;2.80;;
49460;SDS011;35355;49.198;-0.368;2023-07-31T01:02:36;12.65;;;3.08;;
49460;SDS011;35355;49.198;-0.368;2023-07-31T01:05:02;9.18;;;2.97;;
49460;SDS011;35355;49.198;-0.368;2023-07-31T01:10:15;9.68;;;2.35;;
49460;SDS011;35355;49.198;-0.368;2023-07-31T01:12:45;7.72;;;2.25;;
49460;SDS011;35355;49.198;-0.368;2023-07-31T01:15:11;7.57;;;2.60;;
49460;SDS011;35355;49.198;-0.368;2023-07-31T01:17:37;10.23;;;3.10;;
49460;SDS011;35355;49.198;-0.368;2023-07-31T01:20:04;14.77;;;3.40;;
49460;SDS011;35355;49.198;-0.368;2023-07-31T01:28:05;10.13;;;2.97;;
49460;SDS011;35355;49.198;-0.368;2023-07-31T01:30:37;6.32;;;3.05;;
49460;SDS011;35355;49.198;-0.368;2023-07-31T01:33:06;10.32;;;3.00;;
49460;SDS011;35355;49.198;-0.368;2023-07-31T01:35:33;13.23;;;3.42;;
49460;SDS011;35355;49.198;-0.368;2023-07-31T01:38:00;14.30;;;4.00;;
49460;SDS011;35355;49.198;-0.368;2023-07-31T01:40:25;9.15;;;2.17;;
49460;SDS011;35355;49.198;-0.368;2023-07-31T01:42:50;8.90;;;2.50;;
49460;SDS011;35355;49.198;-0.368;2023-07-31T01:45:16;11.00;;;2.60;;
49460;SDS011;35355;49.198;-0.368;2023-07-31T01:47:41;10.52;;;2.65;;
49460;SDS011;35355;49.198;-0.368;2023-07-31T01:50:07;11.63;;;3.13;;
49460;SDS011;35355;49.198;-0.368;2023-07-31T01:52:32;10.40;;;2.88;;
49460;SDS011;35355;49.198;-0.368;2023-07-31T01:54:58;8.07;;;2.63;;
49460;SDS011;35355;49.198;-0.368;2023-07-31T01:57:23;16.23;;;2.97;;
49460;SDS011;35355;49.198;-0.368;2023-07-31T01:59:49;8.93;;;2.53;;
49460;SDS011;35355;49.198;-0.368;2023-07-31T02:02:14;9.32;;;2.20;;
49460;SDS011;35355;49.198;-0.368;2023-07-31T02:04:39;6.32;;;2.38;;
49460;SDS011;35355;49.198;-0.368;2023-07-31T02:07:05;11.75;;;3.05;;
49460;SDS011;35355;49.198;-0.368;2023-07-31T02:09:31;6.30;;;2.33;;
49460;SDS011;35355;49.198;-0.368;2023-07-31T02:11:56;7.82;;;2.50;;
49460;SDS011;35355;49.198;-0.368;2023-07-31T02:14:22;7.13;;;2.08;;
49460;SDS011;35355;49.198;-0.368;2023-07-31T02:16:47;6.28;;;2.38;;
49460;SDS011;35355;49.198;-0.368;2023-07-31T02:19:13;8.02;;;2.33;;
49460;SDS011;35355;49.198;-0.368;2023-07-31T02:21:38;9.18;;;2.08;;
49460;SDS011;35355;49.198;-0.368;2023-07-31T02:24:04;16.00;;;2.90;;
49460;SDS011;35355;49.198;-0.368;2023-07-31T02:26:29;7.85;;;2.67;;
49460;SDS011;35355;49.198;-0.368;2023-07-31T02:28:55;7.53;;;2.72;;
49460;SDS011;35355;49.198;-0.368;2023-07-31T02:31:20;7.18;;;2.30;;
49460;SDS011;35355;49.198;-0.368;2023-07-31T02:33:45;11.48;;;3.40;;
49460;SDS011;35355;49.198;-0.368;2023-07-31T02:36:11;9.40;;;2.78;;
49460;SDS011;35355;49.198;-0.368;2023-07-31T02:38:36;9.10;;;2.78;;
49460;SDS011;35355;49.198;-0.368;2023-07-31T02:41:01;8.27;;;2.63;;
49460;SDS011;35355;49.198;-0.368;2023-07-31T02:43:27;7.78;;;2.58;;
49460;SDS011;35355;49.198;-0.368;2023-07-31T02:45:52;9.35;;;2.53;;
49460;SDS011;35355;49.198;-0.368;2023-07-31T02:48:18;9.95;;;3.38;;
49460;SDS011;35355;49.198;-0.368;2023-07-31T02:50:44;8.75;;;2.88;;
49460;SDS011;35355;49.198;-0.368;2023-07-31T02:53:10;9.43;;;3.65;;
49460;SDS011;35355;49.198;-0.368;2023-07-31T02:55:36;10.02;;;2.60;;
49460;SDS011;35355;49.198;-0.368;2023-07-31T02:58:01;12.35;;;3.30;;
49460;SDS011;35355;49.198;-0.368;2023-07-31T03:00:27;10.27;;;2.85;;
49460;SDS011;35355;49.198;-0.368;2023-07-31T03:02:53;9.75;;;3.20;;
49460;SDS011;35355;49.198;-0.368;2023-07-31T03:05:18;11.50;;;3.67;;
49460;SDS011;35355;49.198;-0.368;2023-07-31T03:07:43;10.25;;;2.97;;
49460;SDS011;35355;49.198;-0.368;2023-07-31T03:10:09;11.32;;;2.67;;
49460;SDS011;35355;49.198;-0.368;2023-07-31T03:12:34;13.38;;;3.63;;
49460;SDS011;35355;49.198;-0.368;2023-07-31T03:15:00;11.85;;;3.03;;
49460;SDS011;35355;49.198;-0.368;2023-07-31T03:17:25;6.85;;;2.72;;
49460;SDS011;35355;49.198;-0.368;2023-07-31T03:19:51;11.88;;;4.00;;
49460;SDS011;35355;49.198;-0.368;2023-07-31T03:22:16;14.57;;;3.58;;
49460;SDS011;35355;49.198;-0.368;2023-07-31T03:24:41;14.30;;;3.83;;
49460;SDS011;35355;49.198;-0.368;2023-07-31T03:27:07;9.85;;;4.05;;
49460;SDS011;35355;49.198;-0.368;2023-07-31T03:29:32;12.05;;;3.47;;
49460;SDS011;35355;49.198;-0.368;2023-07-31T03:31:57;11.30;;;3.30;;
49460;SDS011;35355;49.198;-0.368;2023-07-31T03:34:24;11.93;;;3.20;;
49460;SDS011;35355;49.198;-0.368;2023-07-31T03:36:49;13.07;;;3.50;;
49460;SDS011;35355;49.198;-0.368;2023-07-31T03:39:14;10.02;;;3.85;;
49460;SDS011;35355;49.198;-0.368;2023-07-31T03:41:40;10.18;;;3.15;;
49460;SDS011;35355;49.198;-0.368;2023-07-31T03:44:05;9.10;;;3.03;;
49460;SDS011;35355;49.198;-0.368;2023-07-31T03:46:31;14.65;;;3.35;;
49460;SDS011;35355;49.198;-0.368;2023-07-31T03:48:56;21.88;;;3.33;;
49460;SDS011;35355;49.198;-0.368;2023-07-31T03:51:21;11.90;;;3.17;;
49460;SDS011;35355;49.198;-0.368;2023-07-31T03:53:47;11.77;;;3.70;;
49460;SDS011;35355;49.198;-0.368;2023-07-31T03:56:13;13.93;;;4.97;;
49460;SDS011;35355;49.198;-0.368;2023-07-31T03:58:38;15.38;;;3.45;;
49460;SDS011;35355;49.198;-0.368;2023-07-31T04:01:04;11.43;;;3.28;;
49460;SDS011;35355;49.198;-0.368;2023-07-31T04:03:30;11.02;;;3.05;;
49460;SDS011;35355;49.198;-0.368;2023-07-31T04:05:55;14.65;;;3.70;;
49460;SDS011;35355;49.198;-0.368;2023-07-31T04:08:21;13.55;;;3.95;;
49460;SDS011;35355;49.198;-0.368;2023-07-31T04:10:47;13.00;;;3.42;;
49460;SDS011;35355;49.198;-0.368;2023-07-31T04:13:12;23.05;;;3.42;;
49460;SDS011;35355;49.198;-0.368;2023-07-31T04:15:38;11.02;;;2.80;;
49460;SDS011;35355;49.198;-0.368;2023-07-31T04:18:04;17.20;;;3.58;;
49460;SDS011;35355;49.198;-0.368;2023-07-31T04:20:30;11.20;;;3.55;;
49460;SDS011;35355;49.198;-0.368;2023-07-31T04:22:55;10.90;;;2.97;;
49460;SDS011;35355;49.198;-0.368;2023-07-31T04:25:20;8.75;;;3.03;;
49460;SDS011;35355;49.198;-0.368;2023-07-31T04:27:46;9.73;;;3.00;;
49460;SDS011;35355;49.198;-0.368;2023-07-31T04:30:11;14.63;;;4.05;;
49460;SDS011;35355;49.198;-0.368;2023-07-31T04:32:37;12.13;;;3.15;;
49460;SDS011;35355;49.198;-0.368;2023-07-31T04:35:02;13.68;;;3.70;;
49460;SDS011;35355;49.198;-0.368;2023-07-31T04:37:28;11.82;;;3.80;;
49460;SDS011;35355;49.198;-0.368;2023-07-31T04:39:53;10.77;;;3.45;;
49460;SDS011;35355;49.198;-0.368;2023-07-31T04:42:19;7.80;;;2.45;;
49460;SDS011;35355;49.198;-0.368;2023-07-31T04:44:44;11.30;;;3.42;;
49460;SDS011;35355;49.198;-0.368;2023-07-31T04:47:10;10.63;;;3.22;;
49460;SDS011;35355;49.198;-0.368;2023-07-31T04:49:35;8.57;;;3.10;;
49460;SDS011;35355;49.198;-0.368;2023-07-31T04:52:01;9.55;;;3.20;;
49460;SDS011;35355;49.198;-0.368;2023-07-31T04:54:26;12.55;;;3.40;;
49460;SDS011;35355;49.198;-0.368;2023-07-31T04:56:52;10.05;;;2.97;;
49460;SDS011;35355;49.198;-0.368;2023-07-31T04:59:17;7.78;;;2.78;;
49460;SDS011;35355;49.198;-0.368;2023-07-31T05:01:43;11.73;;;3.30;;
49460;SDS011;35355;49.198;-0.368;2023-07-31T05:04:12;14.45;;;3.55;;
49460;SDS011;35355;49.198;-0.368;2023-07-31T05:06:38;9.90;;;2.35;;
49460;SDS011;35355;49.198;-0.368;2023-07-31T05:09:03;10.77;;;2.80;;
49460;SDS011;35355;49.198;-0.368;2023-07-31T05:11:29;12.10;;;3.10;;
49460;SDS011;35355;49.198;-0.368;2023-07-31T05:13:54;10.15;;;2.88;;
49460;SDS011;35355;49.198;-0.368;2023-07-31T05:16:19;12.45;;;3.15;;
49460;SDS011;35355;49.198;-0.368;2023-07-31T05:18:45;11.40;;;2.90;;
49460;SDS011;35355;49.198;-0.368;2023-07-31T05:21:11;10.73;;;3.10;;
49460;SDS011;35355;49.198;-0.368;2023-07-31T05:23:36;9.10;;;3.33;;
49460;SDS011;35355;49.198;-0.368;2023-07-31T05:26:03;10.10;;;2.72;;
49460;SDS011;35355;49.198;-0.368;2023-07-31T05:28:29;13.23;;;3.03;;
49460;SDS011;35355;49.198;-0.368;2023-07-31T05:30:58;13.70;;;3.38;;
49460;SDS011;35355;49.198;-0.368;2023-07-31T05:33:27;13.00;;;4.05;;
49460;SDS011;35355;49.198;-0.368;2023-07-31T05:35:53;11.02;;;3.10;;
49460;SDS011;35355;49.198;-0.368;2023-07-31T05:38:18;11.25;;;2.45;;
49460;SDS011;35355;49.198;-0.368;2023-07-31T05:40:44;15.13;;;2.70;;
49460;SDS011;35355;49.198;-0.368;2023-07-31T05:43:09;11.75;;;4.50;;
49460;SDS011;35355;49.198;-0.368;2023-07-31T05:45:35;8.48;;;3.03;;
49460;SDS011;35355;49.198;-0.368;2023-07-31T05:48:01;10.75;;;2.75;;
49460;SDS011;35355;49.198;-0.368;2023-07-31T05:50:27;6.75;;;2.70;;
49460;SDS011;35355;49.198;-0.368;2023-07-31T05:52:53;12.70;;;2.60;;
49460;SDS011;35355;49.198;-0.368;2023-07-31T05:55:18;12.73;;;2.67;;
49460;SDS011;35355;49.198;-0.368;2023-07-31T05:57:43;13.23;;;3.70;;
49460;SDS011;35355;49.198;-0.368;2023-07-31T06:00:12;8.05;;;2.55;;
49460;SDS011;35355;49.198;-0.368;2023-07-31T06:02:38;11.18;;;2.58;;
49460;SDS011;35355;49.198;-0.368;2023-07-31T06:05:04;15.23;;;3.53;;
49460;SDS011;35355;49.198;-0.368;2023-07-31T06:07:33;10.70;;;2.80;;
49460;SDS011;35355;49.198;-0.368;2023-07-31T06:09:58;7.28;;;2.55;;
49460;SDS011;35355;49.198;-0.368;2023-07-31T06:12:30;12.23;;;3.25;;
49460;SDS011;35355;49.198;-0.368;2023-07-31T06:14:56;12.68;;;2.53;;
49460;SDS011;35355;49.198;-0.368;2023-07-31T06:17:22;18.83;;;2.97;;
49460;SDS011;35355;49.198;-0.368;2023-07-31T06:19:47;15.20;;;4.03;;
49460;SDS011;35355;49.198;-0.368;2023-07-31T06:22:12;9.52;;;2.60;;
49460;SDS011;35355;49.198;-0.368;2023-07-31T06:24:38;11.55;;;3.10;;
49460;SDS011;35355;49.198;-0.368;2023-07-31T06:27:04;10.90;;;2.42;;
49460;SDS011;35355;49.198;-0.368;2023-07-31T06:29:31;12.07;;;3.05;;
49460;SDS011;35355;49.198;-0.368;2023-07-31T06:31:56;13.75;;;3.75;;
49460;SDS011;35355;49.198;-0.368;2023-07-31T06:34:22;17.88;;;3.58;;
49460;SDS011;35355;49.198;-0.368;2023-07-31T06:36:47;8.65;;;2.67;;
49460;SDS011;35355;49.198;-0.368;2023-07-31T06:39:13;10.55;;;2.80;;
49460;SDS011;35355;49.198;-0.368;2023-07-31T06:41:38;9.75;;;2.65;;
49460;SDS011;35355;49.198;-0.368;2023-07-31T06:44:04;8.55;;;2.38;;
49460;SDS011;35355;49.198;-0.368;2023-07-31T06:46:29;6.60;;;2.13;;
49460;SDS011;35355;49.198;-0.368;2023-07-31T06:48:55;14.55;;;2.00;;
49460;SDS011;35355;49.198;-0.368;2023-07-31T06:51:20;14.60;;;2.58;;
49460;SDS011;35355;49.198;-0.368;2023-07-31T06:53:46;8.80;;;2.10;;
49460;SDS011;35355;49.198;-0.368;2023-07-31T06:56:12;11.00;;;2.10;;
49460;SDS011;35355;49.198;-0.368;2023-07-31T06:58:37;8.15;;;2.50;;
49460;SDS011;35355;49.198;-0.368;2023-07-31T07:01:02;8.05;;;2.22;;
49460;SDS011;35355;49.198;-0.368;2023-07-31T07:03:28;6.40;;;2.25;;
49460;SDS011;35355;49.198;-0.368;2023-07-31T07:05:54;5.40;;;1.70;;
49460;SDS011;35355;49.198;-0.368;2023-07-31T07:08:19;8.02;;;2.40;;
49460;SDS011;35355;49.198;-0.368;2023-07-31T07:10:44;6.57;;;1.92;;
49460;SDS011;35355;49.198;-0.368;2023-07-31T07:13:10;10.30;;;2.13;;
49460;SDS011;35355;49.198;-0.368;2023-07-31T07:15:37;7.55;;;2.08;;
49460;SDS011;35355;49.198;-0.368;2023-07-31T07:18:03;7.18;;;1.98;;
49460;SDS011;35355;49.198;-0.368;2023-07-31T07:20:28;8.70;;;1.75;;
49460;SDS011;35355;49.198;-0.368;2023-07-31T07:22:54;9.80;;;1.70;;
49460;SDS011;35355;49.198;-0.368;2023-07-31T07:25:19;8.40;;;1.83;;
49460;SDS011;35355;49.198;-0.368;2023-07-31T07:27:45;5.85;;;1.60;;
49460;SDS011;35355;49.198;-0.368;2023-07-31T07:30:10;7.65;;;2.15;;
49460;SDS011;35355;49.198;-0.368;2023-07-31T07:32:36;3.65;;;1.65;;
49460;SDS011;35355;49.198;-0.368;2023-07-31T07:35:01;4.55;;;1.70;;
49460;SDS011;35355;49.198;-0.368;2023-07-31T07:37:26;7.80;;;1.55;;
49460;SDS011;35355;49.198;-0.368;2023-07-31T07:39:52;8.57;;;1.65;;
49460;SDS011;35355;49.198;-0.368;2023-07-31T07:42:17;8.15;;;1.73;;
49460;SDS011;35355;49.198;-0.368;2023-07-31T07:44:43;6.95;;;1.75;;
49460;SDS011;35355;49.198;-0.368;2023-07-31T07:47:08;6.32;;;1.70;;
49460;SDS011;35355;49.198;-0.368;2023-07-31T07:49:34;8.38;;;2.35;;
49460;SDS011;35355;49.198;-0.368;2023-07-31T07:52:00;4.55;;;1.45;;
49460;SDS011;35355;49.198;-0.368;2023-07-31T07:54:26;4.75;;;1.38;;
49460;SDS011;35355;49.198;-0.368;2023-07-31T07:56:52;8.63;;;1.55;;
49460;SDS011;35355;49.198;-0.368;2023-07-31T07:59:17;7.88;;;2.08;;
49460;SDS011;35355;49.198;-0.368;2023-07-31T08:01:43;7.18;;;1.60;;
49460;SDS011;35355;49.198;-0.368;2023-07-31T08:04:08;8.68;;;2.08;;
49460;SDS011;35355;49.198;-0.368;2023-07-31T08:06:33;5.32;;;2.00;;
49460;SDS011;35355;49.198;-0.368;2023-07-31T08:08:59;8.00;;;1.77;;
49460;SDS011;35355;49.198;-0.368;2023-07-31T08:11:25;5.72;;;2.05;;
49460;SDS011;35355;49.198;-0.368;2023-07-31T08:13:50;5.63;;;1.65;;
49460;SDS011;35355;49.198;-0.368;2023-07-31T08:16:15;10.57;;;2.17;;
49460;SDS011;35355;49.198;-0.368;2023-07-31T08:18:41;5.70;;;1.52;;
49460;SDS011;35355;49.198;-0.368;2023-07-31T08:21:07;3.60;;;1.35;;
49460;SDS011;35355;49.198;-0.368;2023-07-31T08:23:33;6.03;;;1.50;;
49460;SDS011;35355;49.198;-0.368;2023-07-31T08:25:58;10.32;;;1.58;;
49460;SDS011;35355;49.198;-0.368;2023-07-31T08:28:24;10.50;;;2.15;;
49460;SDS011;35355;49.198;-0.368;2023-07-31T08:30:49;3.70;;;1.55;;
49460;SDS011;35355;49.198;-0.368;2023-07-31T08:33:15;7.40;;;1.75;;
49460;SDS011;35355;49.198;-0.368;2023-07-31T08:35:41;5.00;;;1.88;;
49460;SDS011;35355;49.198;-0.368;2023-07-31T08:38:06;5.43;;;1.73;;
49460;SDS011;35355;49.198;-0.368;2023-07-31T08:40:32;4.35;;;1.85;;
49460;SDS011;35355;49.198;-0.368;2023-07-31T08:43:00;5.65;;;1.75;;
49460;SDS011;35355;49.198;-0.368;2023-07-31T08:45:27;11.18;;;2.45;;
49460;SDS011;35355;49.198;-0.368;2023-07-31T08:47:53;7.72;;;1.92;;
49460;SDS011;35355;49.198;-0.368;2023-07-31T08:50:20;7.47;;;1.88;;
49460;SDS011;35355;49.198;-0.368;2023-07-31T08:52:46;4.53;;;1.50;;
49460;SDS011;35355;49.198;-0.368;2023-07-31T08:55:13;5.63;;;1.30;;
49460;SDS011;35355;49.198;-0.368;2023-07-31T08:57:39;5.78;;;1.55;;
49460;SDS011;35355;49.198;-0.368;2023-07-31T09:00:05;5.25;;;1.38;;
49460;SDS011;35355;49.198;-0.368;2023-07-31T09:02:38;6.18;;;1.45;;
49460;SDS011;35355;49.198;-0.368;2023-07-31T09:05:10;6.53;;;1.60;;
49460;SDS011;35355;49.198;-0.368;2023-07-31T09:07:36;7.18;;;1.77;;
49460;SDS011;35355;49.198;-0.368;2023-07-31T09:10:02;7.18;;;1.58;;
49460;SDS011;35355;49.198;-0.368;2023-07-31T09:12:28;6.72;;;1.63;;
49460;SDS011;35355;49.198;-0.368;2023-07-31T09:14:54;5.95;;;1.48;;
49460;SDS011;35355;49.198;-0.368;2023-07-31T09:17:28;8.57;;;1.40;;
49460;SDS011;35355;49.198;-0.368;2023-07-31T09:20:05;4.03;;;1.27;;
49460;SDS011;35355;49.198;-0.368;2023-07-31T09:22:38;4.85;;;1.45;;
49460;SDS011;35355;49.198;-0.368;2023-07-31T09:25:14;6.78;;;1.13;;
49460;SDS011;35355;49.198;-0.368;2023-07-31T09:30:24;7.72;;;1.50;;
49460;SDS011;35355;49.198;-0.368;2023-07-31T09:32:50;6.32;;;1.77;;
49460;SDS011;35355;49.198;-0.368;2023-07-31T09:37:59;5.75;;;1.70;;
49460;SDS011;35355;49.198;-0.368;2023-07-31T09:40:32;5.63;;;1.70;;
49460;SDS011;35355;49.198;-0.368;2023-07-31T09:43:01;10.02;;;1.88;;
49460;SDS011;35355;49.198;-0.368;2023-07-31T09:45:28;6.85;;;1.48;;
49460;SDS011;35355;49.198;-0.368;2023-07-31T09:47:55;5.30;;;1.50;;
49460;SDS011;35355;49.198;-0.368;2023-07-31T09:50:22;4.95;;;1.30;;
49460;SDS011;35355;49.198;-0.368;2023-07-31T09:52:50;4.38;;;1.83;;
49460;SDS011;35355;49.198;-0.368;2023-07-31T09:55:16;5.22;;;1.38;;
49460;SDS011;35355;49.198;-0.368;2023-07-31T09:57:46;4.15;;;1.15;;
49460;SDS011;35355;49.198;-0.368;2023-07-31T10:00:13;3.38;;;1.25;;
49460;SDS011;35355;49.198;-0.368;2023-07-31T10:02:40;2.63;;;1.13;;
49460;SDS011;35355;49.198;-0.368;2023-07-31T10:05:07;2.90;;;1.15;;
49460;SDS011;35355;49.198;-0.368;2023-07-31T10:07:37;7.07;;;1.30;;
49460;SDS011;35355;49.198;-0.368;2023-07-31T10:10:06;2.97;;;0.90;;
49460;SDS011;35355;49.198;-0.368;2023-07-31T10:12:34;5.38;;;1.27;;
49460;SDS011;35355;49.198;-0.368;2023-07-31T10:15:01;2.25;;;0.77;;
49460;SDS011;35355;49.198;-0.368;2023-07-31T10:17:27;3.53;;;1.10;;
49460;SDS011;35355;49.198;-0.368;2023-07-31T10:19:54;5.50;;;1.15;;
49460;SDS011;35355;49.198;-0.368;2023-07-31T10:22:22;6.38;;;1.20;;
49460;SDS011;35355;49.198;-0.368;2023-07-31T10:24:48;4.72;;;1.58;;
49460;SDS011;35355;49.198;-0.368;2023-07-31T10:27:17;3.83;;;1.33;;
49460;SDS011;35355;49.198;-0.368;2023-07-31T10:29:43;5.35;;;1.45;;
49460;SDS011;35355;49.198;-0.368;2023-07-31T10:32:12;2.15;;;0.95;;
49460;SDS011;35355;49.198;-0.368;2023-07-31T10:34:39;4.93;;;1.23;;
49460;SDS011;35355;49.198;-0.368;2023-07-31T10:39:58;1.77;;;0.80;;
49460;SDS011;35355;49.198;-0.368;2023-07-31T10:42:27;1.70;;;0.75;;
49460;SDS011;35355;49.198;-0.368;2023-07-31T10:45:05;2.42;;;0.90;;
49460;SDS011;35355;49.198;-0.368;2023-07-31T10:47:45;3.90;;;0.85;;
49460;SDS011;35355;49.198;-0.368;2023-07-31T10:50:12;2.35;;;1.10;;
49460;SDS011;35355;49.198;-0.368;2023-07-31T10:52:38;3.20;;;1.00;;
49460;SDS011;35355;49.198;-0.368;2023-07-31T10:55:14;6.07;;;1.33;;
49460;SDS011;35355;49.198;-0.368;2023-07-31T10:57:50;2.42;;;1.40;;
49460;SDS011;35355;49.198;-0.368;2023-07-31T11:00:20;6.55;;;1.60;;
49460;SDS011;35355;49.198;-0.368;2023-07-31T11:02:55;4.30;;;0.80;;
49460;SDS011;35355;49.198;-0.368;2023-07-31T11:08:11;4.20;;;1.58;;
49460;SDS011;35355;49.198;-0.368;2023-07-31T11:10:41;3.22;;;1.13;;
49460;SDS011;35355;49.198;-0.368;2023-07-31T11:13:11;3.47;;;1.40;;
49460;SDS011;35355;49.198;-0.368;2023-07-31T11:15:36;3.47;;;1.13;;
49460;SDS011;35355;49.198;-0.368;2023-07-31T11:18:02;2.60;;;1.05;;
49460;SDS011;35355;49.198;-0.368;2023-07-31T11:20:34;3.08;;;1.52;;
49460;SDS011;35355;49.198;-0.368;2023-07-31T11:23:02;3.70;;;1.30;;
49460;SDS011;35355;49.198;-0.368;2023-07-31T11:25:29;4.32;;;1.40;;
49460;SDS011;35355;49.198;-0.368;2023-07-31T11:27:56;3.22;;;1.20;;
49460;SDS011;35355;49.198;-0.368;2023-07-31T11:30:22;4.05;;;1.08;;
49460;SDS011;35355;49.198;-0.368;2023-07-31T11:32:47;3.67;;;1.33;;
49460;SDS011;35355;49.198;-0.368;2023-07-31T11:35:13;3.13;;;1.30;;
49460;SDS011;35355;49.198;-0.368;2023-07-31T11:37:40;3.40;;;1.45;;
49460;SDS011;35355;49.198;-0.368;2023-07-31T11:40:09;3.63;;;1.50;;
49460;SDS011;35355;49.198;-0.368;2023-07-31T11:42:35;9.05;;;1.45;;
49460;SDS011;35355;49.198;-0.368;2023-07-31T11:45:02;3.80;;;1.23;;
49460;SDS011;35355;49.198;-0.368;2023-07-31T11:47:28;4.38;;;0.88;;
49460;SDS011;35355;49.198;-0.368;2023-07-31T11:49:55;7.03;;;1.10;;
49460;SDS011;35355;49.198;-0.368;2023-07-31T11:52:21;3.13;;;0.93;;
49460;SDS011;35355;49.198;-0.368;2023-07-31T11:54:48;2.83;;;0.80;;
49460;SDS011;35355;49.198;-0.368;2023-07-31T11:57:14;2.92;;;0.98;;
49460;SDS011;35355;49.198;-0.368;2023-07-31T11:59:41;2.47;;;0.85;;
49460;SDS011;35355;49.198;-0.368;2023-07-31T12:02:07;1.40;;;0.50;;
49460;SDS011;35355;49.198;-0.368;2023-07-31T12:04:33;2.33;;;0.70;;
49460;SDS011;35355;49.198;-0.368;2023-07-31T12:07:00;2.03;;;0.75;;
49460;SDS011;35355;49.198;-0.368;2023-07-31T12:09:25;1.55;;;0.77;;
49460;SDS011;35355;49.198;-0.368;2023-07-31T12:11:51;3.97;;;0.95;;
49460;SDS011;35355;49.198;-0.368;2023-07-31T12:14:23;1.95;;;0.70;;
49460;SDS011;35355;49.198;-0.368;2023-07-31T12:17:00;3.53;;;0.77;;
49460;SDS011;35355;49.198;-0.368;2023-07-31T12:19:30;3.15;;;1.38;;
49460;SDS011;35355;49.198;-0.368;2023-07-31T12:21:56;1.77;;;1.08;;
49460;SDS011;35355;49.198;-0.368;2023-07-31T12:24:23;1.73;;;0.68;;
49460;SDS011;35355;49.198;-0.368;2023-07-31T12:26:48;2.72;;;0.90;;
49460;SDS011;35355;49.198;-0.368;2023-07-31T12:29:14;2.72;;;0.80;;
49460;SDS011;35355;49.198;-0.368;2023-07-31T12:31:42;5.00;;;1.38;;
49460;SDS011;35355;49.198;-0.368;2023-07-31T12:34:15;2.70;;;1.08;;
49460;SDS011;35355;49.198;-0.368;2023-07-31T12:36:42;3.65;;;1.45;;
49460;SDS011;35355;49.198;-0.368;2023-07-31T12:39:08;4.45;;;1.55;;
49460;SDS011;35355;49.198;-0.368;2023-07-31T12:41:33;4.40;;;1.45;;
49460;SDS011;35355;49.198;-0.368;2023-07-31T12:43:58;6.07;;;2.20;;
49460;SDS011;35355;49.198;-0.368;2023-07-31T12:46:24;5.78;;;1.88;;
49460;SDS011;35355;49.198;-0.368;2023-07-31T12:48:49;10.40;;;2.30;;
49460;SDS011;35355;49.198;-0.368;2023-07-31T12:51:14;8.18;;;1.85;;
49460;SDS011;35355;49.198;-0.368;2023-07-31T12:53:40;4.53;;;2.20;;
49460;SDS011;35355;49.198;-0.368;2023-07-31T12:56:05;3.80;;;2.13;;
49460;SDS011;35355;49.198;-0.368;2023-07-31T12:58:31;10.18;;;3.22;;
49460;SDS011;35355;49.198;-0.368;2023-07-31T13:00:56;12.10;;;2.50;;
49460;SDS011;35355;49.198;-0.368;2023-07-31T13:03:22;3.38;;;1.80;;
49460;SDS011;35355;49.198;-0.368;2023-07-31T13:05:47;7.28;;;2.45;;
49460;SDS011;35355;49.198;-0.368;2023-07-31T13:08:13;8.65;;;2.20;;
49460;SDS011;35355;49.198;-0.368;2023-07-31T13:10:40;4.15;;;1.83;;
49460;SDS011;35355;49.198;-0.368;2023-07-31T13:13:06;5.80;;;1.85;;
49460;SDS011;35355;49.198;-0.368;2023-07-31T13:15:31;8.27;;;2.17;;
49460;SDS011;35355;49.198;-0.368;2023-07-31T13:17:57;5.78;;;2.22;;
49460;SDS011;35355;49.198;-0.368;2023-07-31T13:20:22;5.95;;;2.10;;
49460;SDS011;35355;49.198;-0.368;2023-07-31T13:22:48;4.15;;;1.75;;
49460;SDS011;35355;49.198;-0.368;2023-07-31T13:25:13;5.72;;;2.00;;
49460;SDS011;35355;49.198;-0.368;2023-07-31T13:27:39;4.25;;;1.85;;
49460;SDS011;35355;49.198;-0.368;2023-07-31T13:30:05;4.28;;;1.60;;
49460;SDS011;35355;49.198;-0.368;2023-07-31T13:32:31;5.05;;;2.10;;
49460;SDS011;35355;49.198;-0.368;2023-07-31T13:34:56;7.80;;;1.85;;
49460;SDS011;35355;49.198;-0.368;2023-07-31T13:37:22;5.03;;;1.25;;
49460;SDS011;35355;49.198;-0.368;2023-07-31T13:39:47;3.17;;;1.40;;
49460;SDS011;35355;49.198;-0.368;2023-07-31T13:42:12;3.45;;;0.90;;
49460;SDS011;35355;49.198;-0.368;2023-07-31T13:44:38;5.00;;;1.60;;
49460;SDS011;35355;49.198;-0.368;2023-07-31T13:47:04;5.13;;;1.20;;
49460;SDS011;35355;49.198;-0.368;2023-07-31T13:49:30;3.05;;;1.15;;
49460;SDS011;35355;49.198;-0.368;2023-07-31T13:51:56;3.38;;;1.20;;
49460;SDS011;35355;49.198;-0.368;2023-07-31T13:54:22;3.47;;;1.13;;
49460;SDS011;35355;49.198;-0.368;2023-07-31T13:56:48;1.50;;;0.68;;
49460;SDS011;35355;49.198;-0.368;2023-07-31T13:59:14;2.78;;;1.20;;
49460;SDS011;35355;49.198;-0.368;2023-07-31T14:01:41;4.10;;;1.23;;
49460;SDS011;35355;49.198;-0.368;2023-07-31T14:04:07;2.13;;;1.10;;
49460;SDS011;35355;49.198;-0.368;2023-07-31T14:06:32;3.55;;;1.00;;
49460;SDS011;35355;49.198;-0.368;2023-07-31T14:08:58;3.20;;;1.42;;
49460;SDS011;35355;49.198;-0.368;2023-07-31T14:11:23;5.47;;;0.90;;
49460;SDS011;35355;49.198;-0.368;2023-07-31T14:13:49;5.05;;;1.50;;
49460;SDS011;35355;49.198;-0.368;2023-07-31T14:16:15;7.82;;;1.77;;
49460;SDS011;35355;49.198;-0.368;2023-07-31T14:18:42;2.50;;;1.27;;
49460;SDS011;35355;49.198;-0.368;2023-07-31T14:21:08;5.05;;;1.25;;
49460;SDS011;35355;49.198;-0.368;2023-07-31T14:23:33;3.92;;;1.42;;
49460;SDS011;35355;49.198;-0.368;2023-07-31T14:25:59;4.05;;;1.42;;
49460;SDS011;35355;49.198;-0.368;2023-07-31T14:28:25;3.70;;;1.02;;
49460;SDS011;35355;49.198;-0.368;2023-07-31T14:30:50;3.72;;;1.23;;
49460;SDS011;35355;49.198;-0.368;2023-07-31T14:33:16;1.48;;;0.80;;
49460;SDS011;35355;49.198;-0.368;2023-07-31T14:35:41;2.63;;;0.82;;
49460;SDS011;35355;49.198;-0.368;2023-07-31T14:38:06;6.13;;;1.17;;
49460;SDS011;35355;49.198;-0.368;2023-07-31T14:40:32;8.60;;;1.17;;
49460;SDS011;35355;49.198;-0.368;2023-07-31T14:42:57;3.88;;;1.10;;
49460;SDS011;35355;49.198;-0.368;2023-07-31T14:45:23;2.45;;;1.00;;